sensor_id;sensor_type;location;lat;lon;timestamp;P1;durP1;ratioP1;P2;durP2;ratioP2
76712;SDS011;65640;43.154;25.658;2023-01-29T00:01:07;9.18;;;6.22;;
76712;SDS011;65640;43.154;25.658;2023-01-29T00:03:33;8.40;;;6.28;;
76712;SDS011;65640;43.154;25.658;2023-01-29T00:05:59;12.65;;;8.40;;
76712;SDS011;65640;43.154;25.658;2023-01-29T00:08:31;15.10;;;9.52;;
76712;SDS011;65640;43.154;25.658;2023-01-29T00:11:03;18.73;;;10.20;;
76712;SDS011;65640;43.154;25.658;2023-01-29T00:13:30;12.90;;;8.95;;
76712;SDS011;65640;43.154;25.658;2023-01-29T00:15:56;15.20;;;9.27;;
76712;SDS011;65640;43.154;25.658;2023-01-29T00:18:23;12.40;;;8.23;;
76712;SDS011;65640;43.154;25.658;2023-01-29T00:20:49;13.95;;;8.98;;
76712;SDS011;65640;43.154;25.658;2023-01-29T00:23:15;13.40;;;7.97;;
76712;SDS011;65640;43.154;25.658;2023-01-29T00:25:41;12.48;;;8.95;;
76712;SDS011;65640;43.154;25.658;2023-01-29T00:28:07;12.02;;;8.40;;
76712;SDS011;65640;43.154;25.658;2023-01-29T00:30:34;14.45;;;9.27;;
76712;SDS011;65640;43.154;25.658;2023-01-29T00:33:00;15.13;;;9.55;;
76712;SDS011;65640;43.154;25.658;2023-01-29T00:35:25;10.25;;;8.38;;
76712;SDS011;65640;43.154;25.658;2023-01-29T00:37:51;10.77;;;7.78;;
76712;SDS011;65640;43.154;25.658;2023-01-29T00:40:16;11.25;;;7.35;;
76712;SDS011;65640;43.154;25.658;2023-01-29T00:42:44;11.90;;;7.88;;
76712;SDS011;65640;43.154;25.658;2023-01-29T00:45:28;10.05;;;8.07;;
76712;SDS011;65640;43.154;25.658;2023-01-29T00:47:54;8.70;;;6.88;;
76712;SDS011;65640;43.154;25.658;2023-01-29T00:50:19;10.10;;;7.57;;
76712;SDS011;65640;43.154;25.658;2023-01-29T00:52:45;9.90;;;6.97;;
76712;SDS011;65640;43.154;25.658;2023-01-29T00:55:12;11.07;;;7.93;;
76712;SDS011;65640;43.154;25.658;2023-01-29T00:57:38;7.57;;;6.78;;
76712;SDS011;65640;43.154;25.658;2023-01-29T01:00:04;6.90;;;6.07;;
76712;SDS011;65640;43.154;25.658;2023-01-29T01:02:34;9.48;;;6.53;;
76712;SDS011;65640;43.154;25.658;2023-01-29T01:05:18;7.40;;;6.70;;
76712;SDS011;65640;43.154;25.658;2023-01-29T01:07:44;8.82;;;6.40;;
76712;SDS011;65640;43.154;25.658;2023-01-29T01:10:12;6.72;;;5.78;;
76712;SDS011;65640;43.154;25.658;2023-01-29T01:15:17;5.25;;;4.80;;
76712;SDS011;65640;43.154;25.658;2023-01-29T01:17:43;4.32;;;4.03;;
76712;SDS011;65640;43.154;25.658;2023-01-29T01:20:09;4.25;;;3.85;;
76712;SDS011;65640;43.154;25.658;2023-01-29T01:22:37;4.40;;;4.00;;
76712;SDS011;65640;43.154;25.658;2023-01-29T01:25:03;4.00;;;3.70;;
76712;SDS011;65640;43.154;25.658;2023-01-29T01:27:29;3.58;;;3.28;;
76712;SDS011;65640;43.154;25.658;2023-01-29T01:29:55;4.10;;;3.80;;
76712;SDS011;65640;43.154;25.658;2023-01-29T01:32:20;4.03;;;3.72;;
76712;SDS011;65640;43.154;25.658;2023-01-29T01:34:46;4.57;;;4.18;;
76712;SDS011;65640;43.154;25.658;2023-01-29T01:37:11;8.65;;;5.68;;
76712;SDS011;65640;43.154;25.658;2023-01-29T01:39:37;4.97;;;4.47;;
76712;SDS011;65640;43.154;25.658;2023-01-29T01:42:02;5.35;;;4.68;;
76712;SDS011;65640;43.154;25.658;2023-01-29T01:47:15;21.95;;;12.20;;
76712;SDS011;65640;43.154;25.658;2023-01-29T01:49:44;13.02;;;8.25;;
76712;SDS011;65640;43.154;25.658;2023-01-29T01:52:11;7.38;;;6.60;;
76712;SDS011;65640;43.154;25.658;2023-01-29T01:54:40;8.43;;;7.47;;
76712;SDS011;65640;43.154;25.658;2023-01-29T01:57:12;10.55;;;7.60;;
76712;SDS011;65640;43.154;25.658;2023-01-29T01:59:44;8.40;;;6.80;;
76712;SDS011;65640;43.154;25.658;2023-01-29T02:02:14;9.68;;;7.30;;
76712;SDS011;65640;43.154;25.658;2023-01-29T02:04:59;10.23;;;7.45;;
76712;SDS011;65640;43.154;25.658;2023-01-29T02:07:44;12.77;;;9.40;;
76712;SDS011;65640;43.154;25.658;2023-01-29T02:10:34;12.13;;;7.93;;
76712;SDS011;65640;43.154;25.658;2023-01-29T02:13:04;13.40;;;8.93;;
76712;SDS011;65640;43.154;25.658;2023-01-29T02:15:31;13.25;;;9.55;;
76712;SDS011;65640;43.154;25.658;2023-01-29T02:17:56;17.73;;;11.38;;
76712;SDS011;65640;43.154;25.658;2023-01-29T02:20:26;20.55;;;12.38;;
76712;SDS011;65640;43.154;25.658;2023-01-29T02:30:45;14.25;;;10.23;;
76712;SDS011;65640;43.154;25.658;2023-01-29T02:41:31;13.10;;;9.35;;
76712;SDS011;65640;43.154;25.658;2023-01-29T02:47:04;16.08;;;11.00;;
76712;SDS011;65640;43.154;25.658;2023-01-29T02:49:37;15.48;;;10.23;;
76712;SDS011;65640;43.154;25.658;2023-01-29T02:52:14;11.43;;;8.75;;
76712;SDS011;65640;43.154;25.658;2023-01-29T02:57:26;12.65;;;7.85;;
76712;SDS011;65640;43.154;25.658;2023-01-29T03:00:17;13.45;;;9.30;;
76712;SDS011;65640;43.154;25.658;2023-01-29T03:08:10;13.13;;;9.52;;
76712;SDS011;65640;43.154;25.658;2023-01-29T03:10:41;16.13;;;10.27;;
76712;SDS011;65640;43.154;25.658;2023-01-29T03:13:13;17.75;;;11.60;;
76712;SDS011;65640;43.154;25.658;2023-01-29T03:15:43;14.45;;;9.60;;
76712;SDS011;65640;43.154;25.658;2023-01-29T03:18:17;14.20;;;9.63;;
76712;SDS011;65640;43.154;25.658;2023-01-29T03:20:47;14.43;;;9.85;;
76712;SDS011;65640;43.154;25.658;2023-01-29T03:23:24;13.50;;;10.02;;
76712;SDS011;65640;43.154;25.658;2023-01-29T03:26:12;15.25;;;9.63;;
76712;SDS011;65640;43.154;25.658;2023-01-29T03:28:59;12.40;;;8.90;;
76712;SDS011;65640;43.154;25.658;2023-01-29T03:31:46;14.82;;;9.93;;
76712;SDS011;65640;43.154;25.658;2023-01-29T03:34:27;14.55;;;9.82;;
76712;SDS011;65640;43.154;25.658;2023-01-29T03:37:02;14.70;;;10.02;;
76712;SDS011;65640;43.154;25.658;2023-01-29T03:39:33;13.00;;;9.25;;
76712;SDS011;65640;43.154;25.658;2023-01-29T03:47:23;15.60;;;10.50;;
76712;SDS011;65640;43.154;25.658;2023-01-29T03:50:03;13.88;;;9.80;;
76712;SDS011;65640;43.154;25.658;2023-01-29T04:00:44;51.65;;;29.67;;
76712;SDS011;65640;43.154;25.658;2023-01-29T04:03:22;72.65;;;33.08;;
76712;SDS011;65640;43.154;25.658;2023-01-29T04:05:55;45.63;;;28.00;;
76712;SDS011;65640;43.154;25.658;2023-01-29T04:08:29;28.35;;;18.45;;
76712;SDS011;65640;43.154;25.658;2023-01-29T04:10:58;18.67;;;13.30;;
76712;SDS011;65640;43.154;25.658;2023-01-29T04:13:29;13.98;;;10.38;;
76712;SDS011;65640;43.154;25.658;2023-01-29T04:15:57;16.63;;;10.02;;
76712;SDS011;65640;43.154;25.658;2023-01-29T04:18:26;14.35;;;10.10;;
76712;SDS011;65640;43.154;25.658;2023-01-29T04:20:51;15.10;;;9.95;;
76712;SDS011;65640;43.154;25.658;2023-01-29T04:23:21;14.38;;;9.57;;
76712;SDS011;65640;43.154;25.658;2023-01-29T04:25:53;15.13;;;9.52;;
76712;SDS011;65640;43.154;25.658;2023-01-29T04:31:31;16.10;;;11.07;;
76712;SDS011;65640;43.154;25.658;2023-01-29T04:36:33;10.95;;;9.00;;
76712;SDS011;65640;43.154;25.658;2023-01-29T04:39:12;13.23;;;9.48;;
76712;SDS011;65640;43.154;25.658;2023-01-29T04:44:23;15.52;;;9.68;;
76712;SDS011;65640;43.154;25.658;2023-01-29T04:52:00;15.95;;;10.30;;
76712;SDS011;65640;43.154;25.658;2023-01-29T05:00:15;11.32;;;8.70;;
76712;SDS011;65640;43.154;25.658;2023-01-29T05:02:42;10.43;;;8.73;;
76712;SDS011;65640;43.154;25.658;2023-01-29T05:05:09;12.55;;;9.55;;
76712;SDS011;65640;43.154;25.658;2023-01-29T05:07:37;14.13;;;9.40;;
76712;SDS011;65640;43.154;25.658;2023-01-29T05:10:04;11.73;;;9.18;;
76712;SDS011;65640;43.154;25.658;2023-01-29T05:12:32;14.60;;;10.48;;
76712;SDS011;65640;43.154;25.658;2023-01-29T05:15:00;15.50;;;9.82;;
76712;SDS011;65640;43.154;25.658;2023-01-29T05:17:27;14.98;;;9.65;;
76712;SDS011;65640;43.154;25.658;2023-01-29T05:19:54;12.85;;;9.38;;
76712;SDS011;65640;43.154;25.658;2023-01-29T05:22:20;13.20;;;9.73;;
76712;SDS011;65640;43.154;25.658;2023-01-29T05:24:49;14.40;;;11.07;;
76712;SDS011;65640;43.154;25.658;2023-01-29T05:27:23;17.70;;;11.48;;
76712;SDS011;65640;43.154;25.658;2023-01-29T05:30:14;14.60;;;11.30;;
76712;SDS011;65640;43.154;25.658;2023-01-29T05:32:39;21.35;;;14.30;;
76712;SDS011;65640;43.154;25.658;2023-01-29T05:35:05;20.60;;;13.45;;
76712;SDS011;65640;43.154;25.658;2023-01-29T05:37:30;27.65;;;16.80;;
76712;SDS011;65640;43.154;25.658;2023-01-29T05:39:56;29.98;;;18.30;;
76712;SDS011;65640;43.154;25.658;2023-01-29T05:42:21;27.10;;;16.50;;
76712;SDS011;65640;43.154;25.658;2023-01-29T05:44:48;28.80;;;18.15;;
76712;SDS011;65640;43.154;25.658;2023-01-29T05:47:13;33.42;;;17.75;;
76712;SDS011;65640;43.154;25.658;2023-01-29T05:49:38;29.42;;;16.23;;
76712;SDS011;65640;43.154;25.658;2023-01-29T05:52:04;24.25;;;14.98;;
76712;SDS011;65640;43.154;25.658;2023-01-29T05:54:29;22.73;;;12.18;;
76712;SDS011;65640;43.154;25.658;2023-01-29T05:56:54;21.38;;;12.98;;
76712;SDS011;65640;43.154;25.658;2023-01-29T05:59:20;24.33;;;14.55;;
76712;SDS011;65640;43.154;25.658;2023-01-29T06:01:45;18.60;;;13.18;;
76712;SDS011;65640;43.154;25.658;2023-01-29T06:04:11;15.52;;;10.35;;
76712;SDS011;65640;43.154;25.658;2023-01-29T06:06:36;15.40;;;10.80;;
76712;SDS011;65640;43.154;25.658;2023-01-29T06:09:01;14.52;;;10.13;;
76712;SDS011;65640;43.154;25.658;2023-01-29T06:11:27;13.20;;;9.55;;
76712;SDS011;65640;43.154;25.658;2023-01-29T06:13:52;13.15;;;9.00;;
76712;SDS011;65640;43.154;25.658;2023-01-29T06:16:18;24.50;;;11.75;;
76712;SDS011;65640;43.154;25.658;2023-01-29T06:18:43;20.65;;;9.40;;
76712;SDS011;65640;43.154;25.658;2023-01-29T06:21:10;33.15;;;16.02;;
76712;SDS011;65640;43.154;25.658;2023-01-29T06:23:36;18.17;;;10.30;;
76712;SDS011;65640;43.154;25.658;2023-01-29T06:26:06;21.63;;;10.98;;
76712;SDS011;65640;43.154;25.658;2023-01-29T06:28:34;19.13;;;10.57;;
76712;SDS011;65640;43.154;25.658;2023-01-29T06:31:00;19.90;;;9.80;;
76712;SDS011;65640;43.154;25.658;2023-01-29T06:33:27;10.95;;;6.65;;
76712;SDS011;65640;43.154;25.658;2023-01-29T06:35:56;14.93;;;7.80;;
76712;SDS011;65640;43.154;25.658;2023-01-29T06:38:25;13.18;;;7.30;;
76712;SDS011;65640;43.154;25.658;2023-01-29T06:40:51;8.00;;;5.97;;
76712;SDS011;65640;43.154;25.658;2023-01-29T06:43:17;17.10;;;9.32;;
76712;SDS011;65640;43.154;25.658;2023-01-29T06:45:47;12.45;;;7.53;;
76712;SDS011;65640;43.154;25.658;2023-01-29T06:48:15;9.10;;;6.05;;
76712;SDS011;65640;43.154;25.658;2023-01-29T06:50:41;7.45;;;4.82;;
76712;SDS011;65640;43.154;25.658;2023-01-29T06:53:06;6.32;;;5.28;;
76712;SDS011;65640;43.154;25.658;2023-01-29T06:55:32;6.25;;;5.60;;
76712;SDS011;65640;43.154;25.658;2023-01-29T06:57:58;21.10;;;10.55;;
76712;SDS011;65640;43.154;25.658;2023-01-29T07:00:23;10.43;;;7.68;;
76712;SDS011;65640;43.154;25.658;2023-01-29T07:02:49;6.90;;;6.20;;
76712;SDS011;65640;43.154;25.658;2023-01-29T07:05:15;5.93;;;5.30;;
76712;SDS011;65640;43.154;25.658;2023-01-29T07:07:40;6.80;;;6.10;;
76712;SDS011;65640;43.154;25.658;2023-01-29T07:10:05;8.23;;;7.28;;
76712;SDS011;65640;43.154;25.658;2023-01-29T07:12:32;7.10;;;5.68;;
76712;SDS011;65640;43.154;25.658;2023-01-29T07:14:57;8.90;;;6.55;;
76712;SDS011;65640;43.154;25.658;2023-01-29T07:17:22;10.65;;;7.20;;
76712;SDS011;65640;43.154;25.658;2023-01-29T07:19:48;10.75;;;7.63;;
76712;SDS011;65640;43.154;25.658;2023-01-29T07:22:13;14.32;;;8.18;;
76712;SDS011;65640;43.154;25.658;2023-01-29T07:24:40;9.57;;;7.40;;
76712;SDS011;65640;43.154;25.658;2023-01-29T07:27:06;7.60;;;6.78;;
76712;SDS011;65640;43.154;25.658;2023-01-29T07:29:31;14.55;;;9.35;;
76712;SDS011;65640;43.154;25.658;2023-01-29T07:31:57;9.23;;;6.93;;
76712;SDS011;65640;43.154;25.658;2023-01-29T07:34:22;6.80;;;5.45;;
76712;SDS011;65640;43.154;25.658;2023-01-29T07:36:47;7.10;;;5.82;;
76712;SDS011;65640;43.154;25.658;2023-01-29T07:39:13;7.60;;;6.50;;
76712;SDS011;65640;43.154;25.658;2023-01-29T07:41:39;6.45;;;5.75;;
76712;SDS011;65640;43.154;25.658;2023-01-29T07:44:04;16.48;;;9.35;;
76712;SDS011;65640;43.154;25.658;2023-01-29T07:46:29;77.63;;;21.52;;
76712;SDS011;65640;43.154;25.658;2023-01-29T07:48:55;55.55;;;17.67;;
76712;SDS011;65640;43.154;25.658;2023-01-29T07:51:22;42.20;;;15.02;;
76712;SDS011;65640;43.154;25.658;2023-01-29T07:53:47;63.25;;;18.60;;
76712;SDS011;65640;43.154;25.658;2023-01-29T07:56:13;24.02;;;11.52;;
76712;SDS011;65640;43.154;25.658;2023-01-29T07:58:39;27.23;;;12.98;;
76712;SDS011;65640;43.154;25.658;2023-01-29T08:01:05;27.80;;;14.45;;
76712;SDS011;65640;43.154;25.658;2023-01-29T08:03:34;30.08;;;16.95;;
76712;SDS011;65640;43.154;25.658;2023-01-29T08:06:00;17.35;;;12.85;;
76712;SDS011;65640;43.154;25.658;2023-01-29T08:08:27;17.73;;;11.05;;
76712;SDS011;65640;43.154;25.658;2023-01-29T08:10:52;12.18;;;9.38;;
76712;SDS011;65640;43.154;25.658;2023-01-29T08:13:17;8.60;;;6.57;;
76712;SDS011;65640;43.154;25.658;2023-01-29T08:15:43;10.70;;;8.27;;
76712;SDS011;65640;43.154;25.658;2023-01-29T08:18:12;12.75;;;9.10;;
76712;SDS011;65640;43.154;25.658;2023-01-29T08:20:38;11.63;;;8.15;;
76712;SDS011;65640;43.154;25.658;2023-01-29T08:23:05;7.95;;;6.47;;
76712;SDS011;65640;43.154;25.658;2023-01-29T08:25:32;11.85;;;8.13;;
76712;SDS011;65640;43.154;25.658;2023-01-29T08:27:58;9.15;;;7.57;;
76712;SDS011;65640;43.154;25.658;2023-01-29T08:30:25;13.88;;;9.73;;
76712;SDS011;65640;43.154;25.658;2023-01-29T08:32:52;13.95;;;9.38;;
76712;SDS011;65640;43.154;25.658;2023-01-29T08:35:17;12.90;;;9.02;;
76712;SDS011;65640;43.154;25.658;2023-01-29T08:37:43;11.05;;;7.90;;
76712;SDS011;65640;43.154;25.658;2023-01-29T08:40:08;12.13;;;7.35;;
76712;SDS011;65640;43.154;25.658;2023-01-29T08:42:36;11.05;;;7.68;;
76712;SDS011;65640;43.154;25.658;2023-01-29T08:45:01;9.52;;;7.03;;
76712;SDS011;65640;43.154;25.658;2023-01-29T08:47:27;9.05;;;7.03;;
76712;SDS011;65640;43.154;25.658;2023-01-29T08:49:52;7.88;;;5.88;;
76712;SDS011;65640;43.154;25.658;2023-01-29T08:52:18;5.82;;;5.28;;
76712;SDS011;65640;43.154;25.658;2023-01-29T08:54:43;7.88;;;6.68;;
76712;SDS011;65640;43.154;25.658;2023-01-29T08:57:08;9.57;;;7.63;;
76712;SDS011;65640;43.154;25.658;2023-01-29T08:59:34;11.38;;;6.03;;
76712;SDS011;65640;43.154;25.658;2023-01-29T09:01:59;6.25;;;5.43;;
76712;SDS011;65640;43.154;25.658;2023-01-29T09:04:25;6.80;;;6.20;;
76712;SDS011;65640;43.154;25.658;2023-01-29T09:06:50;7.53;;;5.72;;
76712;SDS011;65640;43.154;25.658;2023-01-29T09:09:16;6.82;;;6.13;;
76712;SDS011;65640;43.154;25.658;2023-01-29T09:11:42;6.68;;;6.03;;
76712;SDS011;65640;43.154;25.658;2023-01-29T09:14:08;9.20;;;7.10;;
76712;SDS011;65640;43.154;25.658;2023-01-29T09:16:36;6.18;;;5.32;;
76712;SDS011;65640;43.154;25.658;2023-01-29T09:19:01;6.35;;;5.70;;
76712;SDS011;65640;43.154;25.658;2023-01-29T09:21:27;8.40;;;6.97;;
76712;SDS011;65640;43.154;25.658;2023-01-29T09:23:52;9.35;;;6.90;;
76712;SDS011;65640;43.154;25.658;2023-01-29T09:26:18;7.38;;;5.97;;
76712;SDS011;65640;43.154;25.658;2023-01-29T09:28:43;8.57;;;6.55;;
76712;SDS011;65640;43.154;25.658;2023-01-29T09:31:08;5.70;;;5.15;;
76712;SDS011;65640;43.154;25.658;2023-01-29T09:33:34;5.53;;;5.05;;
76712;SDS011;65640;43.154;25.658;2023-01-29T09:36:01;8.30;;;7.50;;
76712;SDS011;65640;43.154;25.658;2023-01-29T09:38:27;6.65;;;6.05;;
76712;SDS011;65640;43.154;25.658;2023-01-29T09:41:02;5.43;;;5.00;;
76712;SDS011;65640;43.154;25.658;2023-01-29T09:43:51;7.28;;;6.25;;
76712;SDS011;65640;43.154;25.658;2023-01-29T09:46:34;7.55;;;6.45;;
76712;SDS011;65640;43.154;25.658;2023-01-29T09:49:07;7.43;;;5.97;;
76712;SDS011;65640;43.154;25.658;2023-01-29T09:51:40;8.13;;;7.07;;
76712;SDS011;65640;43.154;25.658;2023-01-29T09:56:58;8.40;;;7.00;;
76712;SDS011;65640;43.154;25.658;2023-01-29T09:59:29;7.68;;;6.72;;
76712;SDS011;65640;43.154;25.658;2023-01-29T10:04:58;8.13;;;7.30;;
76712;SDS011;65640;43.154;25.658;2023-01-29T10:13:09;12.38;;;8.60;;
76712;SDS011;65640;43.154;25.658;2023-01-29T10:15:44;8.05;;;7.15;;
76712;SDS011;65640;43.154;25.658;2023-01-29T10:26:33;12.35;;;6.95;;
76712;SDS011;65640;43.154;25.658;2023-01-29T10:29:01;16.52;;;10.20;;
76712;SDS011;65640;43.154;25.658;2023-01-29T10:31:31;12.50;;;9.63;;
76712;SDS011;65640;43.154;25.658;2023-01-29T10:34:06;11.63;;;9.25;;
76712;SDS011;65640;43.154;25.658;2023-01-29T10:36:43;13.40;;;11.48;;
76712;SDS011;65640;43.154;25.658;2023-01-29T10:39:17;9.13;;;7.72;;
76712;SDS011;65640;43.154;25.658;2023-01-29T10:44:53;11.18;;;8.23;;
76712;SDS011;65640;43.154;25.658;2023-01-29T10:52:50;8.25;;;7.07;;
76712;SDS011;65640;43.154;25.658;2023-01-29T11:00:39;8.20;;;6.60;;
76712;SDS011;65640;43.154;25.658;2023-01-29T11:08:37;7.85;;;6.55;;
76712;SDS011;65640;43.154;25.658;2023-01-29T11:13:30;11.82;;;8.82;;
76712;SDS011;65640;43.154;25.658;2023-01-29T11:16:00;9.38;;;6.60;;
76712;SDS011;65640;43.154;25.658;2023-01-29T11:18:27;9.23;;;6.93;;
76712;SDS011;65640;43.154;25.658;2023-01-29T11:21:13;38.63;;;14.13;;
76712;SDS011;65640;43.154;25.658;2023-01-29T11:23:40;16.48;;;8.10;;
76712;SDS011;65640;43.154;25.658;2023-01-29T11:26:05;256.23;;;73.63;;
76712;SDS011;65640;43.154;25.658;2023-01-29T11:28:41;49.92;;;21.70;;
76712;SDS011;65640;43.154;25.658;2023-01-29T11:31:18;11.82;;;8.55;;
76712;SDS011;65640;43.154;25.658;2023-01-29T11:33:46;10.40;;;7.93;;
76712;SDS011;65640;43.154;25.658;2023-01-29T11:38:46;11.02;;;8.35;;
76712;SDS011;65640;43.154;25.658;2023-01-29T11:41:15;11.82;;;8.55;;
76712;SDS011;65640;43.154;25.658;2023-01-29T11:43:46;12.27;;;8.95;;
76712;SDS011;65640;43.154;25.658;2023-01-29T11:46:12;11.70;;;9.57;;
76712;SDS011;65640;43.154;25.658;2023-01-29T11:51:10;14.35;;;9.75;;
76712;SDS011;65640;43.154;25.658;2023-01-29T11:53:44;13.02;;;9.52;;
76712;SDS011;65640;43.154;25.658;2023-01-29T11:58:58;13.68;;;10.00;;
76712;SDS011;65640;43.154;25.658;2023-01-29T12:01:30;11.70;;;8.60;;
76712;SDS011;65640;43.154;25.658;2023-01-29T12:04:00;10.25;;;7.97;;
76712;SDS011;65640;43.154;25.658;2023-01-29T12:06:31;19.33;;;15.18;;
76712;SDS011;65640;43.154;25.658;2023-01-29T12:09:00;18.42;;;11.75;;
76712;SDS011;65640;43.154;25.658;2023-01-29T12:11:32;13.70;;;10.65;;
76712;SDS011;65640;43.154;25.658;2023-01-29T12:14:00;15.55;;;10.82;;
76712;SDS011;65640;43.154;25.658;2023-01-29T12:24:57;14.98;;;10.50;;
76712;SDS011;65640;43.154;25.658;2023-01-29T12:27:31;17.75;;;11.25;;
76712;SDS011;65640;43.154;25.658;2023-01-29T12:30:06;15.40;;;10.50;;
76712;SDS011;65640;43.154;25.658;2023-01-29T12:40:20;11.13;;;7.90;;
76712;SDS011;65640;43.154;25.658;2023-01-29T12:42:52;13.65;;;9.15;;
76712;SDS011;65640;43.154;25.658;2023-01-29T12:45:22;13.43;;;8.88;;
76712;SDS011;65640;43.154;25.658;2023-01-29T12:47:51;12.23;;;9.35;;
76712;SDS011;65640;43.154;25.658;2023-01-29T12:50:20;16.45;;;10.05;;
76712;SDS011;65640;43.154;25.658;2023-01-29T12:52:52;12.07;;;8.27;;
76712;SDS011;65640;43.154;25.658;2023-01-29T12:58:11;11.90;;;9.65;;
76712;SDS011;65640;43.154;25.658;2023-01-29T13:00:47;18.73;;;11.63;;
76712;SDS011;65640;43.154;25.658;2023-01-29T13:06:04;18.67;;;13.13;;
76712;SDS011;65640;43.154;25.658;2023-01-29T13:08:38;16.38;;;10.48;;
76712;SDS011;65640;43.154;25.658;2023-01-29T13:13:56;15.25;;;10.60;;
76712;SDS011;65640;43.154;25.658;2023-01-29T13:16:26;13.57;;;10.65;;
76712;SDS011;65640;43.154;25.658;2023-01-29T13:18:58;13.90;;;10.75;;
76712;SDS011;65640;43.154;25.658;2023-01-29T13:21:34;14.70;;;10.77;;
76712;SDS011;65640;43.154;25.658;2023-01-29T13:24:08;18.05;;;12.13;;
76712;SDS011;65640;43.154;25.658;2023-01-29T13:26:35;16.45;;;10.95;;
76712;SDS011;65640;43.154;25.658;2023-01-29T13:29:01;16.70;;;11.40;;
76712;SDS011;65640;43.154;25.658;2023-01-29T13:31:30;18.25;;;12.13;;
76712;SDS011;65640;43.154;25.658;2023-01-29T13:36:42;15.95;;;10.90;;
76712;SDS011;65640;43.154;25.658;2023-01-29T13:39:53;14.73;;;10.05;;
76712;SDS011;65640;43.154;25.658;2023-01-29T13:42:13;17.58;;;11.20;;
76712;SDS011;65640;43.154;25.658;2023-01-29T13:44:47;13.90;;;9.20;;
76712;SDS011;65640;43.154;25.658;2023-01-29T13:47:25;16.88;;;10.93;;
76712;SDS011;65640;43.154;25.658;2023-01-29T13:49:56;17.25;;;11.13;;
76712;SDS011;65640;43.154;25.658;2023-01-29T13:54:58;30.08;;;17.13;;
76712;SDS011;65640;43.154;25.658;2023-01-29T13:57:32;25.08;;;14.63;;
76712;SDS011;65640;43.154;25.658;2023-01-29T14:00:00;22.27;;;13.65;;
76712;SDS011;65640;43.154;25.658;2023-01-29T14:02:26;22.63;;;12.85;;
76712;SDS011;65640;43.154;25.658;2023-01-29T14:08:03;22.95;;;13.60;;
76712;SDS011;65640;43.154;25.658;2023-01-29T14:10:30;21.35;;;13.82;;
76712;SDS011;65640;43.154;25.658;2023-01-29T14:20:27;19.70;;;12.60;;
76712;SDS011;65640;43.154;25.658;2023-01-29T14:22:59;17.98;;;10.98;;
76712;SDS011;65640;43.154;25.658;2023-01-29T14:27:57;11.05;;;8.85;;
76712;SDS011;65640;43.154;25.658;2023-01-29T14:30:26;11.20;;;9.18;;
76712;SDS011;65640;43.154;25.658;2023-01-29T14:32:55;14.32;;;10.05;;
76712;SDS011;65640;43.154;25.658;2023-01-29T14:35:22;14.32;;;10.95;;
76712;SDS011;65640;43.154;25.658;2023-01-29T14:37:55;21.90;;;15.73;;
76712;SDS011;65640;43.154;25.658;2023-01-29T14:40:24;23.45;;;15.85;;
76712;SDS011;65640;43.154;25.658;2023-01-29T14:55:43;35.75;;;20.35;;
76712;SDS011;65640;43.154;25.658;2023-01-29T14:58:16;33.78;;;19.35;;
76712;SDS011;65640;43.154;25.658;2023-01-29T15:01:04;34.03;;;17.55;;
76712;SDS011;65640;43.154;25.658;2023-01-29T15:03:42;24.92;;;16.38;;
76712;SDS011;65640;43.154;25.658;2023-01-29T15:06:22;25.83;;;16.00;;
76712;SDS011;65640;43.154;25.658;2023-01-29T15:08:59;31.00;;;16.08;;
76712;SDS011;65640;43.154;25.658;2023-01-29T15:11:32;21.75;;;12.90;;
76712;SDS011;65640;43.154;25.658;2023-01-29T15:16:42;26.30;;;15.38;;
76712;SDS011;65640;43.154;25.658;2023-01-29T15:19:13;22.95;;;14.40;;
76712;SDS011;65640;43.154;25.658;2023-01-29T15:22:01;23.10;;;14.23;;
76712;SDS011;65640;43.154;25.658;2023-01-29T15:24:30;22.52;;;14.43;;
76712;SDS011;65640;43.154;25.658;2023-01-29T15:26:55;22.92;;;15.30;;
76712;SDS011;65640;43.154;25.658;2023-01-29T15:29:24;32.80;;;20.92;;
76712;SDS011;65640;43.154;25.658;2023-01-29T15:31:51;33.28;;;20.45;;
76712;SDS011;65640;43.154;25.658;2023-01-29T15:34:18;26.25;;;17.02;;
76712;SDS011;65640;43.154;25.658;2023-01-29T15:36:43;26.50;;;16.17;;
76712;SDS011;65640;43.154;25.658;2023-01-29T15:41:36;29.10;;;18.05;;
76712;SDS011;65640;43.154;25.658;2023-01-29T15:44:02;25.20;;;17.05;;
76712;SDS011;65640;43.154;25.658;2023-01-29T15:46:29;25.17;;;16.23;;
76712;SDS011;65640;43.154;25.658;2023-01-29T15:48:59;28.92;;;17.83;;
76712;SDS011;65640;43.154;25.658;2023-01-29T15:51:29;31.77;;;18.73;;
76712;SDS011;65640;43.154;25.658;2023-01-29T15:53:56;31.63;;;18.20;;
76712;SDS011;65640;43.154;25.658;2023-01-29T15:56:25;31.02;;;20.63;;
76712;SDS011;65640;43.154;25.658;2023-01-29T15:58:53;46.70;;;24.63;;
76712;SDS011;65640;43.154;25.658;2023-01-29T16:01:24;46.85;;;24.27;;
76712;SDS011;65640;43.154;25.658;2023-01-29T16:03:50;42.53;;;24.13;;
76712;SDS011;65640;43.154;25.658;2023-01-29T16:06:16;44.90;;;24.60;;
76712;SDS011;65640;43.154;25.658;2023-01-29T16:08:42;44.28;;;24.52;;
76712;SDS011;65640;43.154;25.658;2023-01-29T16:11:12;53.88;;;28.73;;
76712;SDS011;65640;43.154;25.658;2023-01-29T16:13:40;36.72;;;21.92;;
76712;SDS011;65640;43.154;25.658;2023-01-29T16:18:40;45.90;;;25.17;;
76712;SDS011;65640;43.154;25.658;2023-01-29T16:21:28;40.70;;;22.95;;
76712;SDS011;65640;43.154;25.658;2023-01-29T16:23:58;48.60;;;26.35;;
76712;SDS011;65640;43.154;25.658;2023-01-29T16:26:33;43.60;;;25.63;;
76712;SDS011;65640;43.154;25.658;2023-01-29T16:29:07;57.45;;;32.97;;
76712;SDS011;65640;43.154;25.658;2023-01-29T16:31:34;71.28;;;37.72;;
76712;SDS011;65640;43.154;25.658;2023-01-29T16:34:23;78.95;;;45.40;;
76712;SDS011;65640;43.154;25.658;2023-01-29T16:36:46;65.60;;;35.55;;
76712;SDS011;65640;43.154;25.658;2023-01-29T16:39:17;50.10;;;30.38;;
76712;SDS011;65640;43.154;25.658;2023-01-29T16:41:45;46.13;;;26.75;;
76712;SDS011;65640;43.154;25.658;2023-01-29T16:45:05;43.70;;;25.33;;
76712;SDS011;65640;43.154;25.658;2023-01-29T16:47:47;56.45;;;29.90;;
76712;SDS011;65640;43.154;25.658;2023-01-29T16:50:43;48.78;;;26.90;;
76712;SDS011;65640;43.154;25.658;2023-01-29T16:53:14;50.15;;;30.70;;
76712;SDS011;65640;43.154;25.658;2023-01-29T16:55:44;46.97;;;27.85;;
76712;SDS011;65640;43.154;25.658;2023-01-29T16:58:16;41.00;;;23.52;;
76712;SDS011;65640;43.154;25.658;2023-01-29T17:00:58;38.90;;;21.23;;
76712;SDS011;65640;43.154;25.658;2023-01-29T17:03:26;35.20;;;19.95;;
76712;SDS011;65640;43.154;25.658;2023-01-29T17:05:55;35.42;;;19.20;;
76712;SDS011;65640;43.154;25.658;2023-01-29T17:10:49;37.15;;;20.25;;
76712;SDS011;65640;43.154;25.658;2023-01-29T17:13:17;28.45;;;18.35;;
76712;SDS011;65640;43.154;25.658;2023-01-29T17:18:16;22.60;;;15.38;;
76712;SDS011;65640;43.154;25.658;2023-01-29T17:20:42;25.05;;;13.85;;
76712;SDS011;65640;43.154;25.658;2023-01-29T17:23:08;23.08;;;12.77;;
76712;SDS011;65640;43.154;25.658;2023-01-29T17:25:33;21.17;;;14.55;;
76712;SDS011;65640;43.154;25.658;2023-01-29T17:27:59;20.30;;;13.40;;
76712;SDS011;65640;43.154;25.658;2023-01-29T17:30:26;27.73;;;15.82;;
76712;SDS011;65640;43.154;25.658;2023-01-29T17:32:55;26.73;;;16.02;;
76712;SDS011;65640;43.154;25.658;2023-01-29T17:35:20;24.95;;;15.77;;